createdAt,value
2018-02-22T00:01:33.596Z,58.78
2018-02-22T00:04:01.091Z,70.00
2018-02-22T00:06:28.601Z,64.22
2018-02-22T00:08:56.105Z,69.50
2018-02-22T00:11:23.628Z,72.07
2018-02-22T00:13:51.135Z,60.88
2018-02-22T00:16:19.648Z,75.32
2018-02-22T00:18:47.137Z,70.80
2018-02-22T00:21:14.650Z,66.65
2018-02-22T00:23:42.137Z,77.32
2018-02-22T00:26:09.652Z,60.80
2018-02-22T00:28:37.169Z,72.37
2018-02-22T00:31:04.682Z,62.83
2018-02-22T00:33:32.185Z,64.30
2018-02-22T00:35:59.689Z,73.87
2018-02-22T00:38:27.182Z,66.60
2018-02-22T00:40:55.740Z,61.75
2018-02-22T00:43:23.394Z,65.97
2018-02-22T00:45:50.896Z,67.00
2018-02-22T00:48:19.321Z,71.32
2018-02-22T00:50:46.842Z,74.18
2018-02-22T00:53:14.339Z,70.85
2018-02-22T00:55:41.929Z,59.72
2018-02-22T00:58:09.428Z,63.33
2018-02-22T01:00:36.941Z,56.00
2018-02-22T01:03:04.449Z,61.15
2018-02-22T01:05:31.944Z,57.92
2018-02-22T01:07:59.433Z,52.78
2018-02-22T01:10:26.929Z,45.33
2018-02-22T01:12:54.422Z,50.75
2018-02-22T01:15:21.920Z,58.58
2018-02-22T01:17:49.405Z,52.92
2018-02-22T01:20:16.885Z,53.80
2018-02-22T01:22:44.377Z,54.58
2018-02-22T01:25:11.861Z,52.78
2018-02-22T01:27:39.361Z,65.72
2018-02-22T01:30:06.858Z,60.00
2018-02-22T01:32:34.353Z,57.78
2018-02-22T01:35:01.843Z,67.72
2018-02-22T01:37:29.333Z,50.90
2018-02-22T01:39:56.823Z,58.30
2018-02-22T01:42:24.310Z,52.08
2018-02-22T01:44:51.806Z,48.83
2018-02-22T01:47:19.338Z,48.83
2018-02-22T01:49:46.829Z,47.35
2018-02-22T01:52:22.550Z,46.55
2018-02-22T01:54:50.165Z,52.50
2018-02-22T01:57:17.741Z,49.92
2018-02-22T01:59:45.325Z,48.28
2018-02-22T02:02:12.926Z,46.85
2018-02-22T02:04:40.515Z,46.35
2018-02-22T02:07:08.097Z,53.17
2018-02-22T02:09:36.621Z,50.03
2018-02-22T02:12:04.227Z,49.78
2018-02-22T02:14:31.810Z,48.40
2018-02-22T02:16:59.399Z,49.33
2018-02-22T02:19:28.930Z,41.45
2018-02-22T02:21:56.506Z,43.05
2018-02-22T02:24:24.085Z,41.88
2018-02-22T02:26:51.677Z,38.17
2018-02-22T02:29:19.269Z,39.63
2018-02-22T02:31:46.853Z,43.03
2018-02-22T02:34:14.442Z,43.35
2018-02-22T02:36:42.052Z,39.78
2018-02-22T02:39:09.639Z,40.40
2018-02-22T02:41:37.239Z,45.85
2018-02-22T02:44:04.832Z,40.63
2018-02-22T02:46:32.417Z,40.40
2018-02-22T02:49:00.002Z,45.50
2018-02-22T02:51:27.598Z,39.58
2018-02-22T02:53:55.203Z,40.22
2018-02-22T02:56:22.829Z,39.60
2018-02-22T02:58:50.405Z,42.67
2018-02-22T03:01:17.987Z,40.40
2018-02-22T03:03:45.573Z,40.30
2018-02-22T03:06:13.159Z,34.70
2018-02-22T03:08:40.742Z,38.95
2018-02-22T03:11:08.337Z,38.30
2018-02-22T03:13:36.868Z,37.00
2018-02-22T03:16:04.494Z,40.45
2018-02-22T03:18:32.255Z,35.92
2018-02-22T03:20:59.838Z,38.60
2018-02-22T03:23:27.419Z,36.47
2018-02-22T03:25:55.047Z,38.80
2018-02-22T03:28:22.619Z,50.17
2018-02-22T03:30:50.206Z,35.47
2018-02-22T03:33:17.784Z,33.63
2018-02-22T03:35:45.366Z,36.53
2018-02-22T03:38:12.965Z,41.50
2018-02-22T03:40:40.541Z,38.28
2018-02-22T03:43:08.154Z,40.08
2018-02-22T03:45:35.735Z,42.20
2018-02-22T03:48:03.317Z,42.10
2018-02-22T03:50:30.948Z,38.13
2018-02-22T03:52:58.534Z,41.72
2018-02-22T03:55:26.140Z,45.17
2018-02-22T03:57:53.705Z,54.13
2018-02-22T04:00:21.515Z,47.60
2018-02-22T04:02:49.322Z,47.25
2018-02-22T04:05:16.909Z,42.53
2018-02-22T04:07:44.494Z,44.25
2018-02-22T04:10:12.083Z,43.08
2018-02-22T04:12:39.680Z,41.97
2018-02-22T04:15:07.275Z,43.08
2018-02-22T04:17:34.881Z,49.15
2018-02-22T04:20:03.398Z,51.75
2018-02-22T04:22:30.742Z,42.28
2018-02-22T04:24:58.322Z,49.78
2018-02-22T04:27:25.910Z,44.80
2018-02-22T04:29:53.513Z,46.72
2018-02-22T04:32:21.101Z,42.17
2018-02-22T04:34:50.635Z,39.58
2018-02-22T04:37:18.217Z,43.35
2018-02-22T04:39:45.797Z,38.83
2018-02-22T04:42:13.377Z,38.03
2018-02-22T04:44:40.969Z,40.55
2018-02-22T04:47:08.570Z,39.05
2018-02-22T04:49:36.160Z,43.87
2018-02-22T04:52:03.772Z,36.63
2018-02-22T04:54:31.361Z,39.47
2018-02-22T04:56:58.937Z,30.85
2018-02-22T04:59:26.514Z,31.33
2018-02-22T05:01:54.087Z,37.25
2018-02-22T05:04:21.732Z,55.63
2018-02-22T05:06:49.312Z,38.83
2018-02-22T05:09:16.920Z,35.60
2018-02-22T05:11:44.503Z,35.97
2018-02-22T05:14:12.089Z,35.17
2018-02-22T05:16:39.681Z,41.17
2018-02-22T05:19:07.258Z,41.03
2018-02-22T05:21:34.853Z,32.85
2018-02-22T05:24:02.437Z,41.88
2018-02-22T05:26:30.025Z,31.00
2018-02-22T05:28:57.611Z,38.00
2018-02-22T05:31:25.185Z,32.83
2018-02-22T05:33:52.791Z,36.78
2018-02-22T05:36:20.389Z,38.08
2018-02-22T05:38:47.973Z,39.33
2018-02-22T05:41:15.553Z,33.47
2018-02-22T05:43:43.139Z,37.05
2018-02-22T05:46:10.718Z,34.67
2018-02-22T05:48:38.323Z,34.55
2018-02-22T05:51:05.925Z,48.05
2018-02-22T05:53:33.509Z,36.92
2018-02-22T05:56:01.097Z,36.80
2018-02-22T05:58:28.705Z,33.75
2018-02-22T06:00:57.225Z,34.22
2018-02-22T06:03:24.822Z,41.30
2018-02-22T06:05:52.405Z,45.28
2018-02-22T06:08:20.006Z,37.83
2018-02-22T06:10:47.620Z,40.22
2018-02-22T06:13:15.209Z,42.33
2018-02-22T06:15:42.811Z,39.97
2018-02-22T06:18:10.407Z,41.33
2018-02-22T06:20:38.005Z,33.40
2018-02-22T06:23:05.409Z,43.45
2018-02-22T06:25:33.964Z,49.97
2018-02-22T06:28:01.550Z,38.95
2018-02-22T06:30:29.145Z,39.63
2018-02-22T06:32:56.608Z,41.37
2018-02-22T06:35:24.202Z,39.40
2018-02-22T06:37:51.805Z,45.35
2018-02-22T06:40:19.606Z,42.97
2018-02-22T06:42:47.197Z,40.88
2018-02-22T06:45:15.229Z,37.38
2018-02-22T06:47:42.814Z,44.58
2018-02-22T06:50:10.398Z,38.03
2018-02-22T06:52:37.990Z,39.22
2018-02-22T06:55:05.595Z,39.55
2018-02-22T06:57:33.174Z,33.35
2018-02-22T07:00:00.757Z,33.03
2018-02-22T07:02:28.337Z,27.73
2018-02-22T07:04:55.923Z,37.67
2018-02-22T07:07:23.515Z,39.17
2018-02-22T07:09:51.104Z,36.88
2018-02-22T07:12:18.710Z,35.28
2018-02-22T07:14:46.285Z,34.85
2018-02-22T07:17:13.874Z,35.67
2018-02-22T07:19:41.466Z,41.55
2018-02-22T07:22:09.052Z,34.67
2018-02-22T07:24:36.637Z,32.28
2018-02-22T07:27:04.213Z,35.45
2018-02-22T07:29:31.827Z,31.00
2018-02-22T07:31:59.409Z,34.35
2018-02-22T07:34:27.018Z,34.03
2018-02-22T07:36:54.608Z,34.92
2018-02-22T07:39:22.204Z,33.58
2018-02-22T07:41:49.841Z,35.85
2018-02-22T07:44:17.423Z,38.78
2018-02-22T07:46:45.030Z,28.15
2018-02-22T07:49:12.614Z,31.98
2018-02-22T07:51:40.202Z,27.15
2018-02-22T07:54:07.849Z,32.63
2018-02-22T07:56:35.601Z,34.42
2018-02-22T07:59:03.196Z,29.08
2018-02-22T08:01:30.777Z,28.15
2018-02-22T08:03:58.377Z,30.83
2018-02-22T08:06:26.908Z,36.92
2018-02-22T08:08:54.492Z,36.47
2018-02-22T08:11:22.074Z,32.13
2018-02-22T08:13:49.649Z,28.85
2018-02-22T08:16:17.261Z,38.42
2018-02-22T08:18:44.851Z,30.05
2018-02-22T08:21:12.456Z,30.80
2018-02-22T08:23:40.046Z,34.55
2018-02-22T08:26:08.346Z,38.47
2018-02-22T08:28:35.932Z,31.10
2018-02-22T08:31:03.521Z,29.58
2018-02-22T08:33:31.125Z,28.20
2018-02-22T08:35:58.705Z,31.20
2018-02-22T08:38:26.321Z,30.95
2018-02-22T08:40:53.931Z,31.10
2018-02-22T08:43:21.515Z,35.85
2018-02-22T08:45:49.106Z,32.42
2018-02-22T08:48:16.686Z,32.95
2018-02-22T08:50:44.289Z,34.20
2018-02-22T08:53:11.870Z,29.92
2018-02-22T08:55:39.461Z,30.73
2018-02-22T08:58:07.046Z,33.30
2018-02-22T09:00:34.634Z,31.70
2018-02-22T09:03:02.250Z,27.00
2018-02-22T09:05:29.837Z,30.37
2018-02-22T09:07:57.426Z,27.08
2018-02-22T09:10:25.006Z,29.37
2018-02-22T09:12:52.590Z,27.13
2018-02-22T09:15:20.172Z,25.12
2018-02-22T09:17:47.758Z,33.55
2018-02-22T09:20:15.377Z,25.75
2018-02-22T09:22:42.970Z,28.17
2018-02-22T09:25:10.553Z,27.05
2018-02-22T09:27:38.143Z,25.23
2018-02-22T09:30:05.742Z,28.50
2018-02-22T09:32:33.326Z,32.75
2018-02-22T09:35:00.911Z,31.48
2018-02-22T09:37:28.518Z,28.45
2018-02-22T09:39:56.116Z,30.95
2018-02-22T09:42:23.708Z,28.95
2018-02-22T09:44:51.308Z,22.65
2018-02-22T09:47:18.893Z,34.42
2018-02-22T09:49:47.429Z,27.52
2018-02-22T09:52:15.022Z,30.67
2018-02-22T09:54:43.609Z,32.15
2018-02-22T09:57:11.197Z,27.73
2018-02-22T09:59:38.781Z,29.77
2018-02-22T10:02:06.367Z,27.87
2018-02-22T10:04:33.964Z,27.00
2018-02-22T10:07:01.555Z,31.92
2018-02-22T10:09:29.149Z,26.73
2018-02-22T10:11:56.758Z,24.73
2018-02-22T10:14:24.337Z,31.30
2018-02-22T10:16:51.950Z,27.60
2018-02-22T10:19:19.547Z,31.08
2018-02-22T10:21:47.133Z,27.73
2018-02-22T10:24:14.749Z,31.98
2018-02-22T10:26:42.338Z,24.05
2018-02-22T10:29:09.941Z,26.35
2018-02-22T10:31:37.527Z,26.77
2018-02-22T10:34:05.111Z,26.23
2018-02-22T10:36:32.693Z,26.52
2018-02-22T10:39:00.278Z,31.15
2018-02-22T10:41:27.892Z,31.40
2018-02-22T10:43:55.473Z,24.48
2018-02-22T10:46:23.081Z,25.67
2018-02-22T10:48:50.671Z,24.95
2018-02-22T10:51:18.077Z,31.83
2018-02-22T10:53:45.662Z,30.88
2018-02-22T10:56:13.249Z,24.12
2018-02-22T10:58:40.853Z,27.73
2018-02-22T11:01:14.120Z,29.83
2018-02-22T11:03:41.722Z,29.95
2018-02-22T11:06:09.326Z,23.85
2018-02-22T11:08:36.945Z,25.88
2018-02-22T11:11:04.539Z,24.87
2018-02-22T11:13:32.131Z,27.37
2018-02-22T11:15:59.713Z,32.65
2018-02-22T11:18:27.297Z,28.30
2018-02-22T11:20:54.901Z,31.33
2018-02-22T11:23:22.487Z,27.70
2018-02-22T11:25:50.093Z,25.37
2018-02-22T11:28:17.681Z,34.92
2018-02-22T11:30:45.286Z,29.83
2018-02-22T11:33:12.862Z,34.70
2018-02-22T11:35:41.405Z,32.67
2018-02-22T11:38:10.941Z,34.22
2018-02-22T11:40:38.746Z,37.92
2018-02-22T11:43:06.423Z,33.75
2018-02-22T11:45:34.724Z,34.85
2018-02-22T11:48:02.314Z,34.15
2018-02-22T11:50:29.894Z,52.03
2018-02-22T11:52:57.488Z,25.90
2018-02-22T11:55:25.098Z,28.12
2018-02-22T11:57:52.677Z,35.67
2018-02-22T12:00:20.287Z,28.73
2018-02-22T12:02:47.730Z,26.10
2018-02-22T12:05:15.717Z,31.60
2018-02-22T12:07:43.333Z,25.52
2018-02-22T12:10:10.906Z,25.98
2018-02-22T12:12:38.542Z,27.05
2018-02-22T12:15:06.324Z,29.87
2018-02-22T12:17:33.933Z,28.58
2018-02-22T12:20:01.518Z,29.85
2018-02-22T12:22:29.097Z,28.02
2018-02-22T12:24:56.686Z,27.42
2018-02-22T12:27:24.274Z,28.20
2018-02-22T12:29:51.852Z,25.95
2018-02-22T12:32:19.450Z,27.23
2018-02-22T12:34:47.053Z,25.23
2018-02-22T12:37:14.675Z,33.75
2018-02-22T12:39:42.260Z,28.30
2018-02-22T12:42:09.857Z,31.17
2018-02-22T12:44:37.451Z,45.38
2018-02-22T12:47:05.030Z,33.53
2018-02-22T12:49:32.610Z,32.17
2018-02-22T12:52:00.215Z,30.65
2018-02-22T12:54:27.822Z,29.00
2018-02-22T12:56:55.422Z,25.83
2018-02-22T12:59:23.013Z,30.00
2018-02-22T13:01:50.411Z,29.08
2018-02-22T13:04:17.989Z,25.73
2018-02-22T13:06:45.573Z,30.23
2018-02-22T13:09:13.161Z,28.90
2018-02-22T13:11:40.746Z,32.38
2018-02-22T13:14:08.321Z,27.40
2018-02-22T13:16:35.902Z,32.15
2018-02-22T13:19:03.494Z,25.80
2018-02-22T13:21:31.330Z,30.00
2018-02-22T13:23:58.929Z,26.45
2018-02-22T13:26:26.525Z,26.20
2018-02-22T13:28:54.323Z,26.87
2018-02-22T13:31:21.930Z,37.60
2018-02-22T13:33:55.207Z,27.17
2018-02-22T13:36:22.822Z,26.08
2018-02-22T13:39:05.973Z,28.38
2018-02-22T13:41:33.569Z,23.05
2018-02-22T13:44:16.661Z,26.05
2018-02-22T13:46:46.189Z,25.85
2018-02-22T13:49:19.369Z,23.30
2018-02-22T13:51:46.964Z,26.00
2018-02-22T13:54:14.553Z,23.85
2018-02-22T13:56:47.823Z,24.52
2018-02-22T13:59:15.419Z,26.08
2018-02-22T14:01:48.514Z,24.23
2018-02-22T14:04:16.105Z,28.05
2018-02-22T14:06:43.713Z,27.50
2018-02-22T14:09:11.309Z,23.30
2018-02-22T14:11:38.918Z,27.95
2018-02-22T14:14:06.513Z,27.90
2018-02-22T14:16:34.118Z,25.00
2018-02-22T14:19:01.718Z,29.70
2018-02-22T14:21:29.311Z,32.63
2018-02-22T14:23:56.713Z,26.67
2018-02-22T14:26:24.319Z,30.50
2018-02-22T14:28:51.902Z,25.45
2018-02-22T14:31:19.510Z,25.62
2018-02-22T14:33:47.145Z,31.27
2018-02-22T14:36:14.903Z,25.17
2018-02-22T14:38:42.502Z,25.95
2018-02-22T14:41:10.103Z,26.87
2018-02-22T14:43:37.690Z,27.55
2018-02-22T14:46:05.269Z,26.48
2018-02-22T14:48:32.885Z,24.08
2018-02-22T14:51:00.473Z,20.05
2018-02-22T14:53:28.055Z,27.00
2018-02-22T14:55:55.646Z,27.62
2018-02-22T14:58:23.233Z,25.85
2018-02-22T15:00:56.314Z,29.35
2018-02-22T15:03:23.911Z,25.48
2018-02-22T15:05:51.311Z,26.33
2018-02-22T15:08:18.906Z,26.42
2018-02-22T15:10:46.493Z,29.85
2018-02-22T15:13:14.097Z,25.77
2018-02-22T15:15:41.698Z,23.45
2018-02-22T15:18:09.309Z,24.42
2018-02-22T15:20:36.898Z,25.00
2018-02-22T15:23:04.526Z,28.20
2018-02-22T15:25:32.145Z,27.65
2018-02-22T15:28:01.706Z,28.80
2018-02-22T15:30:30.270Z,25.10
2018-02-22T15:32:57.891Z,23.87
2018-02-22T15:35:25.477Z,25.95
2018-02-22T15:37:54.089Z,27.83
2018-02-22T15:40:21.670Z,23.65
2018-02-22T15:42:49.298Z,23.73
2018-02-22T15:45:16.906Z,24.42
2018-02-22T15:47:44.526Z,29.67
2018-02-22T15:50:12.118Z,23.17
2018-02-22T15:52:39.727Z,28.33
2018-02-22T15:55:07.316Z,21.23
2018-02-22T15:57:36.397Z,27.37
2018-02-22T16:00:03.998Z,26.52
2018-02-22T16:02:31.613Z,22.85
2018-02-22T16:04:59.214Z,22.73
2018-02-22T16:07:26.822Z,27.23
2018-02-22T16:09:54.416Z,29.12
2018-02-22T16:12:22.031Z,25.95
2018-02-22T16:14:49.617Z,21.23
2018-02-22T16:17:17.233Z,23.20
2018-02-22T16:19:44.823Z,23.45
2018-02-22T16:22:12.433Z,24.02
2018-02-22T16:24:40.030Z,26.05
2018-02-22T16:27:07.642Z,30.48
2018-02-22T16:29:35.228Z,26.15
2018-02-22T16:32:02.841Z,31.05
2018-02-22T16:34:30.438Z,25.58
2018-02-22T16:36:58.025Z,23.90
2018-02-22T16:39:25.626Z,29.75
2018-02-22T16:41:53.229Z,26.33
2018-02-22T16:44:20.854Z,26.27
2018-02-22T16:46:48.447Z,25.05
2018-02-22T16:49:16.058Z,25.05
2018-02-22T16:51:43.662Z,27.58
2018-02-22T16:54:11.273Z,24.30
2018-02-22T16:56:38.858Z,27.85
2018-02-22T16:59:06.470Z,28.27
2018-02-22T17:01:34.054Z,27.00
2018-02-22T17:04:01.666Z,31.27
2018-02-22T17:06:29.262Z,25.20
2018-02-22T17:08:56.862Z,28.87
2018-02-22T17:11:24.466Z,32.00
2018-02-22T17:13:52.089Z,25.35
2018-02-22T17:16:19.673Z,29.15
2018-02-22T17:18:47.279Z,30.20
2018-02-22T17:21:14.887Z,31.40
2018-02-22T17:23:42.519Z,26.33
2018-02-22T17:26:16.637Z,29.10
2018-02-22T17:28:49.630Z,30.00
2018-02-22T17:31:22.862Z,27.95
2018-02-22T17:33:50.480Z,31.00
2018-02-22T17:36:20.783Z,26.35
2018-02-22T17:38:48.852Z,29.10
2018-02-22T17:41:16.266Z,26.12
2018-02-22T17:43:43.738Z,39.42
2018-02-22T17:46:11.142Z,34.22
2018-02-22T17:48:38.775Z,29.90
2018-02-22T17:51:06.367Z,35.67
2018-02-22T17:53:35.922Z,24.90
2018-02-22T17:56:03.327Z,27.92
2018-02-22T17:58:30.749Z,28.25
2018-02-22T18:00:58.150Z,35.22
2018-02-22T18:03:26.536Z,30.62
2018-02-22T18:05:53.961Z,29.37
2018-02-22T18:08:21.377Z,25.95
2018-02-22T18:10:48.778Z,25.67
2018-02-22T18:13:18.333Z,120.55
2018-02-22T18:15:45.810Z,29.17
2018-02-22T18:18:13.973Z,28.58
2018-02-22T18:20:41.378Z,30.45
2018-02-22T18:23:08.786Z,23.83
2018-02-22T18:25:37.207Z,33.78
2018-02-22T18:28:04.622Z,28.15
2018-02-22T18:30:32.388Z,23.08
2018-02-22T18:32:59.792Z,26.33
2018-02-22T18:35:27.412Z,29.08
2018-02-22T18:37:59.823Z,24.40
2018-02-22T18:40:32.863Z,27.48
2018-02-22T18:43:00.270Z,31.95
2018-02-22T18:45:27.900Z,30.62
2018-02-22T18:47:55.647Z,23.92
2018-02-22T18:50:23.241Z,24.52
2018-02-22T18:52:50.904Z,26.48
2018-02-22T18:55:18.579Z,30.88
2018-02-22T18:57:46.186Z,28.08
2018-02-22T19:00:13.791Z,30.45
2018-02-22T19:02:41.407Z,28.77
2018-02-22T19:05:09.026Z,27.02
2018-02-22T19:07:36.650Z,27.52
2018-02-22T19:10:04.316Z,26.50
2018-02-22T19:12:31.947Z,23.87
2018-02-22T19:14:59.558Z,25.52
2018-02-22T19:17:27.169Z,24.98
2018-02-22T19:19:54.791Z,25.83
2018-02-22T19:22:22.415Z,26.40
2018-02-22T19:24:50.009Z,28.73
2018-02-22T19:27:17.625Z,25.90
2018-02-22T19:29:45.696Z,23.30
2018-02-22T19:32:13.331Z,40.15
2018-02-22T19:34:40.925Z,26.80
2018-02-22T19:37:08.553Z,25.95
2018-02-22T19:39:36.145Z,26.92
2018-02-22T19:42:04.070Z,31.85
2018-02-22T19:44:31.647Z,33.90
2018-02-22T19:46:59.240Z,29.42
2018-02-22T19:49:26.911Z,24.15
2018-02-22T19:51:54.759Z,26.85
2018-02-22T19:54:22.372Z,28.15
2018-02-22T19:56:50.923Z,24.83
2018-02-22T19:59:18.508Z,28.58
2018-02-22T20:01:46.206Z,26.87
2018-02-22T20:04:14.155Z,30.25
2018-02-22T20:06:41.761Z,24.63
2018-02-22T20:09:09.354Z,23.00
2018-02-22T20:11:37.838Z,26.85
2018-02-22T20:14:05.450Z,24.98
2018-02-22T20:16:32.868Z,27.65
2018-02-22T20:19:00.453Z,22.98
2018-02-22T20:21:28.071Z,27.67
2018-02-22T20:23:55.677Z,27.65
2018-02-22T20:26:24.657Z,31.67
2018-02-22T20:28:52.303Z,28.15
2018-02-22T20:31:20.270Z,27.67
2018-02-22T20:33:47.850Z,32.75
2018-02-22T20:36:15.436Z,30.62
2018-02-22T20:38:43.039Z,23.90
2018-02-22T20:41:11.421Z,30.23
2018-02-22T20:43:40.831Z,28.17
2018-02-22T20:46:08.418Z,29.83
2018-02-22T20:48:35.828Z,31.08
2018-02-22T20:51:04.969Z,28.75
2018-02-22T20:53:36.007Z,28.20
2018-02-22T20:56:03.412Z,24.08
2018-02-22T20:58:34.199Z,31.62
2018-02-22T21:01:01.799Z,23.23
2018-02-22T21:03:29.198Z,32.47
2018-02-22T21:05:56.782Z,29.33
2018-02-22T21:08:25.250Z,25.73
2018-02-22T21:10:52.840Z,29.67
2018-02-22T21:13:20.445Z,29.42
2018-02-22T21:15:48.026Z,24.85
2018-02-22T21:18:15.605Z,24.77
2018-02-22T21:20:43.193Z,26.48
2018-02-22T21:23:10.802Z,27.05
2018-02-22T21:25:38.398Z,25.73
2018-02-22T21:28:05.994Z,26.58
2018-02-22T21:30:33.918Z,26.50
2018-02-22T21:33:01.507Z,22.75
2018-02-22T21:35:29.084Z,26.67
2018-02-22T21:37:56.667Z,26.85
2018-02-22T21:40:24.249Z,29.58
2018-02-22T21:42:51.837Z,28.02
2018-02-22T21:45:19.424Z,28.85
2018-02-22T21:47:47.013Z,28.35
2018-02-22T21:50:14.594Z,28.08
2018-02-22T21:52:42.179Z,27.27
2018-02-22T21:55:09.810Z,29.33
2018-02-22T21:57:37.394Z,25.65
2018-02-22T22:00:04.972Z,28.30
2018-02-22T22:02:32.575Z,28.35
2018-02-22T22:05:00.165Z,25.62
2018-02-22T22:07:27.756Z,28.83
2018-02-22T22:09:55.339Z,26.45
2018-02-22T22:12:22.918Z,32.15
2018-02-22T22:14:50.503Z,27.15
2018-02-22T22:17:18.147Z,25.70
2018-02-22T22:19:45.938Z,33.08
2018-02-22T22:22:13.529Z,36.33
2018-02-22T22:24:41.846Z,28.80
2018-02-22T22:27:09.434Z,31.27
2018-02-22T22:29:37.014Z,27.13
2018-02-22T22:32:05.594Z,27.08
2018-02-22T22:34:33.194Z,25.48
2018-02-22T22:37:00.781Z,30.85
2018-02-22T22:39:28.382Z,36.63
2018-02-22T22:41:55.966Z,44.63
2018-02-22T22:44:23.565Z,35.90
2018-02-22T22:46:51.158Z,25.85
2018-02-22T22:49:18.763Z,28.15
2018-02-22T22:51:46.347Z,29.92
2018-02-22T22:54:13.946Z,32.63
2018-02-22T22:56:41.530Z,27.23
2018-02-22T22:59:09.124Z,32.42
2018-02-22T23:01:36.693Z,31.50
2018-02-22T23:04:04.273Z,26.90
2018-02-22T23:06:31.853Z,30.60
2018-02-22T23:08:59.435Z,28.23
2018-02-22T23:11:27.042Z,31.15
2018-02-22T23:13:55.555Z,31.92
2018-02-22T23:16:23.139Z,29.63
2018-02-22T23:18:50.710Z,31.48
2018-02-22T23:21:18.292Z,28.52
2018-02-22T23:23:45.882Z,28.92
2018-02-22T23:26:13.467Z,28.23
2018-02-22T23:28:41.070Z,28.77
2018-02-22T23:31:08.493Z,29.85
2018-02-22T23:33:35.919Z,28.17
2018-02-22T23:36:03.505Z,31.45
2018-02-22T23:38:30.902Z,30.62
2018-02-22T23:41:00.857Z,28.05
2018-02-22T23:43:28.257Z,30.75
2018-02-22T23:45:56.854Z,32.92
2018-02-22T23:48:24.449Z,32.78
2018-02-22T23:50:52.053Z,28.35
2018-02-22T23:53:19.645Z,32.22
2018-02-22T23:55:47.061Z,29.65
2018-02-22T23:58:14.669Z,24.60
